createdAt,value
2023-04-24T00:01:00.017Z,93.89
2023-04-24T00:03:29.241Z,93.54
2023-04-24T00:05:57.813Z,93.81
2023-04-24T00:08:25.771Z,94.10
2023-04-24T00:10:54.251Z,93.81
2023-04-24T00:13:22.263Z,93.51
2023-04-24T00:15:51.773Z,93.59
2023-04-24T00:18:19.900Z,93.10
2023-04-24T00:20:48.851Z,93.15
2023-04-24T00:23:16.769Z,93.38
2023-04-24T00:25:44.592Z,93.10
2023-04-24T00:28:12.840Z,92.70
2023-04-24T00:30:40.766Z,92.99
2023-04-24T00:33:10.628Z,92.57
2023-04-24T00:35:38.769Z,92.44
2023-04-24T00:38:06.771Z,92.74
2023-04-24T00:40:34.884Z,93.19
2023-04-24T00:43:03.398Z,93.24
2023-04-24T00:45:32.356Z,92.67
2023-04-24T00:48:00.547Z,93.07
2023-04-24T00:50:31.604Z,93.48
2023-04-24T00:52:59.700Z,92.94
2023-04-24T00:55:28.039Z,93.33
2023-04-24T00:57:56.420Z,93.22
2023-04-24T01:00:24.846Z,92.99
2023-04-24T01:02:54.326Z,92.45
2023-04-24T01:05:22.536Z,92.76
2023-04-24T01:07:52.014Z,92.81
2023-04-24T01:10:21.364Z,92.75
2023-04-24T01:12:49.404Z,92.50
2023-04-24T01:15:17.555Z,91.86
2023-04-24T01:17:46.169Z,92.54
2023-04-24T01:20:14.921Z,91.57
2023-04-24T01:22:44.457Z,92.32
2023-04-24T01:25:12.904Z,92.44
2023-04-24T01:27:40.981Z,92.11
2023-04-24T01:30:10.685Z,91.93
2023-04-24T01:32:39.197Z,91.32
2023-04-24T01:35:09.172Z,91.31
2023-04-24T01:37:38.406Z,91.57
2023-04-24T01:40:09.426Z,91.92
2023-04-24T01:42:38.065Z,92.08
2023-04-24T01:45:07.583Z,91.89
2023-04-24T01:47:35.599Z,91.27
2023-04-24T01:50:03.618Z,91.45
2023-04-24T01:52:32.335Z,91.42
2023-04-24T01:55:02.331Z,91.39
2023-04-24T01:57:32.555Z,90.90
2023-04-24T02:00:00.442Z,90.67
2023-04-24T02:02:29.946Z,91.26
2023-04-24T02:04:58.242Z,90.21
2023-04-24T02:07:26.228Z,91.01
2023-04-24T02:09:54.106Z,90.11
2023-04-24T02:12:22.246Z,90.36
2023-04-24T02:14:51.761Z,90.48
2023-04-24T02:17:20.231Z,90.34
2023-04-24T02:19:48.325Z,90.24
2023-04-24T02:22:16.220Z,91.02
2023-04-24T02:24:44.189Z,90.55
2023-04-24T02:27:12.871Z,90.54
2023-04-24T02:29:40.977Z,90.26
2023-04-24T02:32:13.041Z,90.35
2023-04-24T02:34:41.156Z,90.63
2023-04-24T02:37:09.221Z,90.58
2023-04-24T02:39:37.081Z,90.10
2023-04-24T02:42:05.227Z,90.45
2023-04-24T02:44:33.315Z,90.48
2023-04-24T02:47:01.240Z,89.91
2023-04-24T02:49:30.654Z,90.33
2023-04-24T02:51:58.518Z,90.68
2023-04-24T02:54:26.854Z,90.08
2023-04-24T02:56:54.925Z,90.39
2023-04-24T02:59:22.751Z,90.32
2023-04-24T03:01:50.633Z,90.14
2023-04-24T03:04:21.507Z,89.91
2023-04-24T03:06:52.809Z,89.55
2023-04-24T03:09:20.894Z,90.17
2023-04-24T03:11:49.732Z,89.80
2023-04-24T03:14:17.630Z,89.86
2023-04-24T03:16:48.499Z,89.96
2023-04-24T03:19:16.465Z,90.04
2023-04-24T03:21:49.077Z,89.44
2023-04-24T03:24:18.695Z,89.64
2023-04-24T03:26:46.576Z,89.19
2023-04-24T03:29:14.395Z,89.13
2023-04-24T03:31:42.406Z,89.33
2023-04-24T03:34:11.211Z,89.49
2023-04-24T03:36:39.051Z,89.26
2023-04-24T03:39:07.032Z,90.07
2023-04-24T03:41:36.562Z,89.96
2023-04-24T03:44:04.493Z,90.38
2023-04-24T03:46:32.591Z,89.65
2023-04-24T03:49:00.461Z,90.07
2023-04-24T03:51:28.953Z,90.03
2023-04-24T03:53:58.226Z,90.06
2023-04-24T03:56:26.066Z,90.37
2023-04-24T03:58:55.279Z,90.05
2023-04-24T04:01:24.335Z,90.00
2023-04-24T04:03:52.433Z,89.93
2023-04-24T04:06:20.495Z,89.96
2023-04-24T04:08:48.495Z,90.01
2023-04-24T04:11:16.349Z,89.26
2023-04-24T04:13:44.191Z,89.14
2023-04-24T04:16:13.847Z,89.03
2023-04-24T04:18:41.757Z,89.15
2023-04-24T04:21:09.579Z,89.46
2023-04-24T04:23:37.791Z,89.07
2023-04-24T04:26:06.210Z,89.18
2023-04-24T04:28:34.158Z,89.11
2023-04-24T04:31:02.341Z,88.97
2023-04-24T04:33:33.132Z,88.43
2023-04-24T04:36:02.204Z,88.58
2023-04-24T04:38:31.732Z,88.59
2023-04-24T04:40:59.837Z,88.52
2023-04-24T04:43:29.289Z,88.65
2023-04-24T04:45:57.521Z,88.98
2023-04-24T04:48:25.503Z,88.75
2023-04-24T04:50:54.779Z,88.57
2023-04-24T04:53:22.787Z,88.77
2023-04-24T04:55:50.684Z,88.63
2023-04-24T04:58:18.584Z,88.85
2023-04-24T05:00:47.334Z,88.76
2023-04-24T05:05:45.959Z,89.01
2023-04-24T05:10:46.144Z,89.53
2023-04-24T05:13:14.276Z,89.12
2023-04-24T05:15:42.406Z,89.21
2023-04-24T05:18:10.554Z,89.74
2023-04-24T05:20:38.485Z,89.91
2023-04-24T05:23:06.536Z,89.67
2023-04-24T05:25:36.620Z,90.36
2023-04-24T05:28:04.495Z,90.62
2023-04-24T05:30:32.501Z,90.10
2023-04-24T05:33:01.913Z,90.51
2023-04-24T05:35:30.423Z,90.44
2023-04-24T05:37:58.406Z,90.76
2023-04-24T05:40:26.413Z,91.09
2023-04-24T05:42:57.855Z,91.03
2023-04-24T05:45:26.266Z,90.97
2023-04-24T05:47:54.470Z,90.45
2023-04-24T05:50:22.671Z,90.89
2023-04-24T05:52:50.710Z,90.94
2023-04-24T05:55:19.623Z,91.04
2023-04-24T05:57:48.261Z,91.02
2023-04-24T06:00:19.824Z,91.02
2023-04-24T06:02:48.356Z,91.06
2023-04-24T06:05:16.959Z,91.56
2023-04-24T06:07:44.900Z,91.36
2023-04-24T06:10:13.016Z,91.25
2023-04-24T06:12:40.856Z,91.25
2023-04-24T06:15:09.999Z,91.58
2023-04-24T06:17:39.501Z,91.25
2023-04-24T06:20:09.139Z,91.60
2023-04-24T06:22:37.509Z,91.32
2023-04-24T06:25:06.140Z,91.53
2023-04-24T06:27:33.962Z,91.73
2023-04-24T06:30:02.005Z,92.03
2023-04-24T06:32:30.000Z,92.18
2023-04-24T06:34:59.642Z,91.95
2023-04-24T06:37:28.146Z,91.75
2023-04-24T06:39:56.114Z,91.58
2023-04-24T06:42:25.707Z,91.88
2023-04-24T06:44:53.741Z,91.82
2023-04-24T06:47:21.842Z,91.30
2023-04-24T06:49:51.897Z,91.01
2023-04-24T06:52:21.534Z,91.40
2023-04-24T06:54:49.726Z,91.47
2023-04-24T06:57:18.200Z,90.96
2023-04-24T06:59:46.260Z,91.24
2023-04-24T07:02:14.487Z,91.23
2023-04-24T07:04:42.880Z,90.92
2023-04-24T07:07:14.254Z,90.98
2023-04-24T07:09:45.591Z,90.83
2023-04-24T07:12:14.583Z,90.45
2023-04-24T07:14:42.917Z,90.38
2023-04-24T07:17:11.203Z,90.02
2023-04-24T07:19:39.040Z,89.43
2023-04-24T07:22:08.475Z,89.41
2023-04-24T07:24:36.443Z,89.78
2023-04-24T07:27:06.824Z,89.88
2023-04-24T07:29:34.849Z,89.76
2023-04-24T07:32:04.185Z,88.95
2023-04-24T07:34:32.335Z,88.77
2023-04-24T07:37:00.234Z,89.55
2023-04-24T07:39:28.799Z,88.99
2023-04-24T07:41:56.696Z,89.00
2023-04-24T07:44:26.129Z,89.05
2023-04-24T07:46:54.100Z,88.95
2023-04-24T07:49:22.050Z,89.11
2023-04-24T07:51:51.477Z,89.21
2023-04-24T07:54:19.446Z,89.24
2023-04-24T07:56:47.374Z,89.00
2023-04-24T07:59:15.542Z,88.52
2023-04-24T08:01:44.918Z,88.96
2023-04-24T08:04:12.936Z,88.57
2023-04-24T08:06:41.004Z,88.74
2023-04-24T08:09:09.306Z,88.10
2023-04-24T08:11:37.314Z,88.87
2023-04-24T08:14:05.236Z,88.12
2023-04-24T08:16:34.748Z,87.98
2023-04-24T08:19:04.050Z,88.35
2023-04-24T08:21:31.962Z,87.73
2023-04-24T08:24:00.043Z,87.69
2023-04-24T08:26:27.961Z,87.63
2023-04-24T08:28:55.957Z,87.40
2023-04-24T08:31:26.094Z,87.28
2023-04-24T08:33:53.990Z,87.72
2023-04-24T08:36:28.192Z,87.15
2023-04-24T08:39:01.164Z,87.82
2023-04-24T08:41:29.709Z,87.61
2023-04-24T08:43:59.178Z,87.74
2023-04-24T08:46:27.674Z,88.09
2023-04-24T08:48:55.708Z,87.54
2023-04-24T08:51:26.584Z,86.96
2023-04-24T08:53:56.866Z,87.41
2023-04-24T08:56:25.259Z,87.17
2023-04-24T08:58:53.552Z,87.09
2023-04-24T09:01:22.232Z,87.04
2023-04-24T09:03:51.418Z,87.26
2023-04-24T09:06:21.404Z,86.87
2023-04-24T09:08:57.131Z,86.52
2023-04-24T09:11:27.175Z,86.29
2023-04-24T09:13:55.574Z,86.59
2023-04-24T09:16:25.480Z,86.91
2023-04-24T09:18:53.793Z,86.38
2023-04-24T09:21:23.161Z,86.66
2023-04-24T09:24:02.128Z,85.84
2023-04-24T09:26:34.294Z,85.00
2023-04-24T09:29:02.172Z,85.64
2023-04-24T09:31:31.707Z,85.20
2023-04-24T09:34:02.214Z,85.18
2023-04-24T09:36:34.070Z,85.01
2023-04-24T09:39:05.525Z,85.08
2023-04-24T09:41:34.888Z,84.78
2023-04-24T09:44:13.721Z,84.83
2023-04-24T09:46:43.213Z,85.19
2023-04-24T09:49:15.048Z,84.79
2023-04-24T09:51:44.786Z,84.75
2023-04-24T09:54:21.994Z,84.63
2023-04-24T09:56:51.773Z,84.35
2023-04-24T09:59:21.694Z,83.38
2023-04-24T10:01:51.824Z,83.38
2023-04-24T10:04:21.440Z,83.29
2023-04-24T10:06:51.160Z,82.79
2023-04-24T10:09:21.815Z,82.55
2023-04-24T10:11:52.842Z,82.28
2023-04-24T10:14:23.201Z,81.74
2023-04-24T10:16:52.056Z,81.55
2023-04-24T10:19:21.282Z,81.74
2023-04-24T10:21:49.583Z,81.20
2023-04-24T10:24:18.948Z,80.83
2023-04-24T10:26:49.568Z,80.53
2023-04-24T10:29:20.014Z,80.88
2023-04-24T10:31:48.323Z,80.44
2023-04-24T10:34:19.002Z,80.61
2023-04-24T10:36:51.207Z,80.41
2023-04-24T10:39:20.769Z,80.42
2023-04-24T10:41:58.938Z,79.80
2023-04-24T10:44:27.895Z,79.51
2023-04-24T10:46:57.738Z,79.28
2023-04-24T10:49:31.086Z,79.04
2023-04-24T10:52:03.805Z,78.85
2023-04-24T10:54:37.077Z,78.96
2023-04-24T10:57:33.982Z,79.18
2023-04-24T11:00:23.299Z,79.96
2023-04-24T11:02:53.704Z,79.57
2023-04-24T11:05:23.029Z,79.31
2023-04-24T11:08:14.421Z,79.11
2023-04-24T11:10:45.853Z,79.15
2023-04-24T11:13:18.279Z,79.06
2023-04-24T11:15:46.352Z,79.47
2023-04-24T11:18:17.815Z,79.71
2023-04-24T11:20:46.748Z,79.86
2023-04-24T11:23:16.073Z,79.86
2023-04-24T11:25:44.025Z,79.65
2023-04-24T11:28:18.639Z,79.39
2023-04-24T11:30:46.532Z,79.87
2023-04-24T11:33:22.194Z,79.22
2023-04-24T11:35:50.148Z,79.72
2023-04-24T11:38:24.648Z,79.73
2023-04-24T11:40:54.466Z,79.36
2023-04-24T11:43:24.636Z,79.60
2023-04-24T11:45:52.539Z,80.04
2023-04-24T11:48:23.647Z,80.49
2023-04-24T11:50:52.550Z,80.15
2023-04-24T11:53:21.628Z,80.33
2023-04-24T11:55:49.698Z,80.31
2023-04-24T11:58:22.702Z,81.05
2023-04-24T12:00:58.345Z,81.65
2023-04-24T12:03:26.550Z,81.24
2023-04-24T12:05:55.004Z,80.80
2023-04-24T12:08:29.871Z,81.79
2023-04-24T12:10:58.016Z,81.57
2023-04-24T12:13:27.746Z,81.44
2023-04-24T12:15:57.201Z,81.70
2023-04-24T12:18:25.896Z,80.76
2023-04-24T12:20:53.899Z,80.92
2023-04-24T12:23:36.891Z,81.12
2023-04-24T12:26:06.567Z,80.89
2023-04-24T12:28:38.579Z,80.79
2023-04-24T12:31:08.767Z,80.82
2023-04-24T12:33:37.951Z,80.90
2023-04-24T12:36:06.543Z,80.37
2023-04-24T12:38:41.173Z,80.71
2023-04-24T12:41:10.816Z,80.27
2023-04-24T12:43:39.623Z,80.05
2023-04-24T12:46:08.980Z,80.42
2023-04-24T12:48:37.280Z,80.13
2023-04-24T12:51:05.577Z,79.57
2023-04-24T12:53:33.432Z,80.25
2023-04-24T12:56:01.760Z,79.70
2023-04-24T12:58:29.937Z,79.48
2023-04-24T13:00:58.156Z,79.47
2023-04-24T13:03:27.784Z,79.16
2023-04-24T13:05:55.835Z,79.41
2023-04-24T13:08:23.671Z,79.62
2023-04-24T13:10:53.123Z,79.14
2023-04-24T13:13:21.002Z,79.39
2023-04-24T13:15:48.815Z,79.32
2023-04-24T13:18:16.959Z,79.46
2023-04-24T13:20:48.460Z,79.71
2023-04-24T13:23:16.504Z,79.67
2023-04-24T13:25:44.500Z,79.96
2023-04-24T13:28:12.344Z,80.08
2023-04-24T13:30:40.436Z,80.33
2023-04-24T13:33:08.471Z,80.25
2023-04-24T13:35:36.353Z,80.39
2023-04-24T13:38:07.569Z,79.59
2023-04-24T13:40:35.788Z,80.39
2023-04-24T13:43:03.922Z,79.95
2023-04-24T13:45:31.818Z,78.94
2023-04-24T13:48:00.213Z,79.28
2023-04-24T13:50:28.058Z,79.12
2023-04-24T13:52:57.736Z,79.99
2023-04-24T13:55:27.367Z,79.48
2023-04-24T13:57:56.171Z,79.00
2023-04-24T14:00:24.597Z,79.46
2023-04-24T14:02:52.785Z,79.39
2023-04-24T14:05:22.697Z,79.28
2023-04-24T14:07:50.652Z,79.05
2023-04-24T14:10:18.716Z,79.26
2023-04-24T14:12:47.968Z,78.75
2023-04-24T14:15:16.425Z,78.30
2023-04-24T14:17:44.398Z,78.63
2023-04-24T14:20:14.434Z,78.60
2023-04-24T14:22:42.402Z,78.94
2023-04-24T14:25:11.330Z,78.26
2023-04-24T14:27:39.351Z,78.24
2023-04-24T14:30:10.171Z,78.15
2023-04-24T14:32:38.188Z,78.89
2023-04-24T14:35:07.130Z,78.81
2023-04-24T14:37:35.284Z,78.31
2023-04-24T14:40:15.792Z,78.56
2023-04-24T14:42:48.866Z,78.31
2023-04-24T14:45:18.275Z,78.88
2023-04-24T14:47:46.597Z,78.13
2023-04-24T14:50:14.614Z,78.33
2023-04-24T14:52:42.628Z,78.89
2023-04-24T14:55:11.049Z,78.31
2023-04-24T14:57:38.991Z,78.90
2023-04-24T15:00:10.344Z,79.28
2023-04-24T15:02:43.101Z,78.75
2023-04-24T15:05:11.682Z,78.89
2023-04-24T15:07:39.643Z,78.73
2023-04-24T15:10:08.778Z,78.55
2023-04-24T15:12:36.951Z,78.96
2023-04-24T15:15:05.166Z,78.82
2023-04-24T15:17:33.159Z,79.11
2023-04-24T15:20:03.834Z,79.21
2023-04-24T15:22:31.708Z,78.35
2023-04-24T15:24:59.873Z,78.79
2023-04-24T15:27:28.056Z,78.70
2023-04-24T15:29:55.973Z,79.19
2023-04-24T15:32:23.962Z,79.53
2023-04-24T15:35:04.923Z,79.32
2023-04-24T15:37:36.868Z,79.44
2023-04-24T15:40:06.699Z,79.44
2023-04-24T15:42:34.550Z,79.22
2023-04-24T15:45:02.528Z,79.11
2023-04-24T15:47:30.738Z,78.90
2023-04-24T15:49:59.479Z,79.20
2023-04-24T15:52:27.679Z,79.33
2023-04-24T15:54:57.332Z,79.20
2023-04-24T15:57:25.218Z,79.56
2023-04-24T15:59:53.244Z,79.16
2023-04-24T16:02:21.410Z,78.83
2023-04-24T16:04:51.344Z,78.82
2023-04-24T16:07:20.029Z,79.13
2023-04-24T16:09:48.469Z,79.21
2023-04-24T16:12:17.740Z,79.21
2023-04-24T16:14:45.882Z,79.11
2023-04-24T16:17:14.456Z,79.42
2023-04-24T16:19:42.331Z,79.77
2023-04-24T16:22:10.347Z,79.65
2023-04-24T16:24:38.377Z,79.48
2023-04-24T16:27:06.494Z,80.02
2023-04-24T16:29:35.774Z,79.74
2023-04-24T16:32:03.664Z,79.61
2023-04-24T16:34:31.514Z,79.88
2023-04-24T16:36:59.789Z,80.02
2023-04-24T16:39:28.195Z,80.15
2023-04-24T16:41:58.988Z,80.27
2023-04-24T16:44:27.786Z,80.20
2023-04-24T16:46:57.159Z,80.15
2023-04-24T16:49:25.157Z,80.84
2023-04-24T16:51:53.238Z,80.72
2023-04-24T16:54:21.080Z,80.93
2023-04-24T16:56:48.970Z,80.80
2023-04-24T16:59:17.269Z,81.26
2023-04-24T17:01:45.525Z,81.27
2023-04-24T17:04:14.916Z,81.17
2023-04-24T17:06:43.144Z,81.50
2023-04-24T17:09:12.190Z,81.46
2023-04-24T17:11:40.045Z,81.69
2023-04-24T17:14:08.023Z,81.65
2023-04-24T17:16:36.312Z,81.87
2023-04-24T17:19:04.519Z,81.88
2023-04-24T17:21:34.243Z,81.89
2023-04-24T17:24:02.053Z,82.01
2023-04-24T17:26:32.291Z,81.98
2023-04-24T17:29:00.513Z,82.36
2023-04-24T17:31:28.392Z,82.09
2023-04-24T17:33:56.335Z,82.36
2023-04-24T17:36:24.252Z,82.35
2023-04-24T17:38:53.641Z,82.78
2023-04-24T17:41:21.766Z,82.69
2023-04-24T17:43:49.655Z,83.21
2023-04-24T17:46:17.763Z,83.07
2023-04-24T17:48:47.623Z,83.55
2023-04-24T17:51:17.031Z,83.08
2023-04-24T17:53:44.835Z,83.58
2023-04-24T17:56:14.052Z,83.50
2023-04-24T17:58:42.068Z,83.84
2023-04-24T18:01:09.946Z,83.44
2023-04-24T18:03:38.539Z,84.12
2023-04-24T18:06:07.276Z,84.26
2023-04-24T18:08:35.847Z,84.37
2023-04-24T18:11:04.308Z,84.25
2023-04-24T18:13:33.709Z,84.61
2023-04-24T18:16:01.814Z,84.82
2023-04-24T18:18:29.713Z,84.46
2023-04-24T18:20:57.810Z,84.78
2023-04-24T18:23:25.748Z,84.93
2023-04-24T18:25:53.566Z,84.79
2023-04-24T18:28:21.486Z,85.27
2023-04-24T18:30:50.885Z,84.94
2023-04-24T18:33:19.106Z,85.06
2023-04-24T18:35:47.122Z,85.14
2023-04-24T18:38:15.093Z,85.17
2023-04-24T18:40:43.315Z,85.35
2023-04-24T18:43:11.447Z,85.35
2023-04-24T18:45:39.397Z,85.70
2023-04-24T18:48:08.704Z,85.93
2023-04-24T18:50:38.904Z,85.73
2023-04-24T18:53:07.289Z,85.70
2023-04-24T18:55:35.950Z,85.72
2023-04-24T18:58:03.966Z,85.93
2023-04-24T19:00:31.884Z,86.36
2023-04-24T19:02:59.802Z,86.52
2023-04-24T19:05:29.225Z,86.31
2023-04-24T19:07:57.178Z,86.42
2023-04-24T19:10:25.746Z,86.31
2023-04-24T19:12:56.673Z,86.43
2023-04-24T19:15:25.145Z,86.66
2023-04-24T19:17:53.301Z,87.24
2023-04-24T19:20:21.285Z,87.39
2023-04-24T19:22:50.901Z,87.26
2023-04-24T19:25:19.008Z,87.36
2023-04-24T19:27:46.971Z,87.66
2023-04-24T19:30:15.041Z,87.51
2023-04-24T19:32:42.912Z,88.06
2023-04-24T19:35:11.090Z,87.77
2023-04-24T19:37:39.784Z,87.94
2023-04-24T19:40:11.209Z,88.38
2023-04-24T19:42:44.000Z,88.19
2023-04-24T19:45:13.418Z,88.44
2023-04-24T19:47:41.477Z,88.57
2023-04-24T19:50:10.047Z,88.89
2023-04-24T19:52:37.899Z,88.94
2023-04-24T19:55:06.267Z,89.03
2023-04-24T19:57:35.496Z,88.76
2023-04-24T20:00:04.668Z,89.06
2023-04-24T20:02:32.826Z,89.26
2023-04-24T20:05:00.956Z,88.90
2023-04-24T20:07:29.094Z,89.09
2023-04-24T20:09:56.997Z,89.29
2023-04-24T20:12:24.833Z,89.06
2023-04-24T20:14:55.308Z,89.14
2023-04-24T20:17:23.130Z,89.31
2023-04-24T20:19:51.050Z,89.61
2023-04-24T20:22:19.035Z,89.17
2023-04-24T20:24:47.793Z,89.56
2023-04-24T20:27:15.762Z,89.37
2023-04-24T20:29:43.909Z,88.93
2023-04-24T20:32:13.148Z,89.17
2023-04-24T20:34:41.028Z,89.29
2023-04-24T20:37:09.006Z,89.39
2023-04-24T20:39:36.950Z,89.23
2023-04-24T20:42:05.056Z,89.09
2023-04-24T20:44:33.197Z,89.02
2023-04-24T20:47:01.311Z,89.21
2023-04-24T20:49:30.699Z,88.97
2023-04-24T20:51:59.185Z,88.76
2023-04-24T20:54:27.139Z,88.76
2023-04-24T20:56:55.104Z,88.91
2023-04-24T20:59:23.162Z,88.75
2023-04-24T21:01:51.339Z,88.91
2023-04-24T21:04:19.357Z,88.82
2023-04-24T21:06:48.933Z,88.88
2023-04-24T21:09:16.855Z,89.21
2023-04-24T21:11:44.916Z,88.85
2023-04-24T21:14:13.211Z,88.71
2023-04-24T21:16:41.223Z,88.93
2023-04-24T21:19:09.129Z,88.78
2023-04-24T21:21:37.063Z,88.95
2023-04-24T21:24:06.775Z,89.08
2023-04-24T21:26:35.437Z,88.73
2023-04-24T21:29:03.483Z,88.57
2023-04-24T21:31:31.471Z,88.87
2023-04-24T21:33:59.418Z,89.06
2023-04-24T21:36:27.284Z,89.32
2023-04-24T21:38:55.442Z,89.12
2023-04-24T21:41:25.511Z,89.41
2023-04-24T21:43:53.755Z,89.40
2023-04-24T21:46:21.789Z,89.21
2023-04-24T21:48:49.778Z,89.63
2023-04-24T21:51:18.195Z,89.37
2023-04-24T21:53:46.143Z,89.23
2023-04-24T21:56:14.276Z,89.05
2023-04-24T21:58:44.052Z,89.53
2023-04-24T22:01:12.166Z,88.84
2023-04-24T22:03:40.350Z,89.45
2023-04-24T22:06:08.578Z,89.46
2023-04-24T22:08:36.641Z,89.29
2023-04-24T22:11:07.297Z,88.94
2023-04-24T22:13:43.101Z,89.40
2023-04-24T22:16:11.154Z,89.19
2023-04-24T22:18:46.496Z,89.51
2023-04-24T22:21:15.945Z,89.54
2023-04-24T22:23:43.863Z,89.29
2023-04-24T22:26:11.724Z,89.11
2023-04-24T22:28:39.921Z,89.05
2023-04-24T22:31:09.399Z,89.28
2023-04-24T22:33:37.274Z,89.18
2023-04-24T22:36:05.919Z,89.51
2023-04-24T22:38:33.738Z,89.47
2023-04-24T22:41:01.703Z,89.32
2023-04-24T22:43:29.937Z,89.23
2023-04-24T22:45:57.776Z,89.30
2023-04-24T22:48:27.101Z,89.14
2023-04-24T22:50:56.083Z,89.40
2023-04-24T22:53:23.954Z,89.45
2023-04-24T22:55:51.790Z,89.11
2023-04-24T22:58:19.836Z,89.14
2023-04-24T23:00:47.739Z,89.25
2023-04-24T23:03:15.706Z,88.97
2023-04-24T23:05:45.542Z,89.01
2023-04-24T23:08:13.287Z,89.06
2023-04-24T23:10:41.109Z,89.35
2023-04-24T23:13:09.205Z,89.47
2023-04-24T23:15:38.940Z,89.33
2023-04-24T23:18:07.094Z,89.37
2023-04-24T23:20:35.210Z,89.38
2023-04-24T23:23:04.400Z,89.50
2023-04-24T23:25:33.185Z,89.04
2023-04-24T23:28:01.246Z,89.40
2023-04-24T23:30:29.897Z,89.18
2023-04-24T23:32:57.874Z,89.10
2023-04-24T23:35:26.159Z,89.46
2023-04-24T23:37:54.023Z,89.54
2023-04-24T23:40:23.541Z,89.39
2023-04-24T23:42:59.701Z,89.27
2023-04-24T23:45:34.258Z,89.47
2023-04-24T23:48:03.286Z,89.31
2023-04-24T23:50:31.243Z,89.38
2023-04-24T23:52:59.158Z,89.52
2023-04-24T23:55:28.725Z,89.59
2023-04-24T23:57:56.572Z,89.36
